Aérodrome :
LOGIN :

S'inscrire | Disclaimer

   EN    FR    IT 

 










Légende :    VFR   VFR Marginal   IFR   IFR Intensif   IFR Très Intensif
Visi : 
Plafond : 
>= 8 km
>= 3000ft
5 à 8 km
1000 à 3000 ft
1500m à 5 km
500 à 1000 ft
800 à 1500m
200 à 500 ft
< 800m
< 200 ft
Symboles :   Orages  Brouillard  Fortes neiges  Fortes précipitations  Vent > 20 kt
SIGMETs :   Divers  Orages  Givrage  Turbulence  Onde Orograph.  Cendres Volcan.







- Altitude de l'aérodrome : 765 ft


LOAV - Vöslau

DERNIER METAR :
  • 221600Z 08010G22KT 35KM SCT040CU BKN080AC 18/03

METARs EXPIRÉS :
  • 221500Z 08010G22KT 40KM BKN040CU 19/02
  • 221400Z 13008KT 40KM FEW050CU 21/02

TAF AMD TAF LOAV
Valide du 22 à 15h jusqu'au 22 à 21h UTC


221512Z 2215/2221 08008KT 9999 SCT040 BKN080
TEMPO 2215/2221 BKN040
TEMPO 2215/2221 12020G30KT
Pas de NOTAMs connus pour ce terrain.



MET'MAP, la Météo Aéronautique d'un coup d'oeil ! - Copyright ORBIFLY Décembre 2007 - Disclaimer

ORBIFLY MET'MAP TEAM :

Programmation & Développement : Alexandra Zaïnal
Conception & Développement : Baudouin d'Aumeries
Co-Programmation & Développement : Marc-Olivier Méhu
Soutien technique & logistique : Manuel Goepfert

Contact : metmap@orbifly.com




SOURCES & CREDITS :

   NOAA